createdAt,value
2022-11-22T00:00:53.731Z,3.70
2022-11-22T00:03:21.614Z,6.60
2022-11-22T00:05:49.512Z,7.50
2022-11-22T00:08:17.460Z,8.30
2022-11-22T00:10:45.343Z,8.33
2022-11-22T00:13:14.713Z,7.10
2022-11-22T00:15:42.628Z,4.87
2022-11-22T00:18:10.580Z,4.97
2022-11-22T00:20:38.747Z,4.93
2022-11-22T00:23:06.625Z,4.77
2022-11-22T00:25:34.502Z,5.30
2022-11-22T00:28:02.440Z,3.70
2022-11-22T00:30:31.748Z,3.67
2022-11-22T00:32:59.636Z,4.10
2022-11-22T00:35:27.557Z,5.70
2022-11-22T00:37:55.413Z,11.40
2022-11-22T00:40:23.317Z,10.90
2022-11-22T00:42:51.211Z,9.77
2022-11-22T00:45:19.158Z,9.47
2022-11-22T00:47:48.436Z,9.07
2022-11-22T00:50:16.878Z,8.80
2022-11-22T00:52:44.814Z,7.73
2022-11-22T00:55:12.689Z,8.90
2022-11-22T00:57:40.613Z,7.17
2022-11-22T01:00:10.101Z,7.17
2022-11-22T01:02:38.047Z,5.20
2022-11-22T01:05:08.048Z,5.30
2022-11-22T01:07:36.443Z,3.67
2022-11-22T01:10:04.731Z,5.47
2022-11-22T01:12:32.677Z,3.90
2022-11-22T01:15:00.562Z,4.00
2022-11-22T01:17:28.495Z,6.40
2022-11-22T01:19:56.387Z,4.93
2022-11-22T01:22:25.738Z,5.90
2022-11-22T01:24:53.620Z,7.70
2022-11-22T01:27:21.506Z,6.17
2022-11-22T01:29:49.439Z,4.23
2022-11-22T01:32:17.320Z,3.50
2022-11-22T01:34:45.301Z,4.50
2022-11-22T01:37:13.208Z,5.73
2022-11-22T01:39:42.748Z,6.80
2022-11-22T01:42:10.646Z,7.07
2022-11-22T01:44:42.150Z,6.50
2022-11-22T01:47:13.272Z,6.00
2022-11-22T01:49:44.191Z,5.00
2022-11-22T01:52:17.015Z,4.60
2022-11-22T01:54:50.314Z,3.67
2022-11-22T01:57:20.925Z,3.53
2022-11-22T01:59:51.471Z,4.10
2022-11-22T02:02:19.560Z,3.07
2022-11-22T02:04:47.744Z,3.40
2022-11-22T02:07:19.903Z,4.53
2022-11-22T02:09:49.738Z,3.70
2022-11-22T02:12:18.739Z,5.27
2022-11-22T02:14:46.995Z,3.40
2022-11-22T02:17:14.883Z,3.97
2022-11-22T02:19:44.805Z,3.90
2022-11-22T02:22:22.383Z,5.20
2022-11-22T02:24:55.890Z,5.90
2022-11-22T02:27:25.394Z,6.57
2022-11-22T02:29:53.363Z,6.07
2022-11-22T02:32:21.273Z,5.60
2022-11-22T02:34:50.697Z,4.30
2022-11-22T02:37:21.945Z,5.23
2022-11-22T02:39:50.826Z,4.83
2022-11-22T02:42:18.720Z,5.10
2022-11-22T02:44:47.968Z,5.57
2022-11-22T02:47:15.948Z,4.70
2022-11-22T02:49:43.903Z,4.23
2022-11-22T02:52:11.818Z,3.23
2022-11-22T02:54:39.747Z,4.40
2022-11-22T02:57:07.660Z,4.73
2022-11-22T02:59:35.593Z,4.00
2022-11-22T03:02:04.922Z,4.23
2022-11-22T03:04:32.812Z,4.07
2022-11-22T03:07:02.225Z,7.10
2022-11-22T03:09:30.390Z,4.40
2022-11-22T03:11:58.505Z,9.40
2022-11-22T03:14:26.863Z,7.90
2022-11-22T03:16:54.917Z,11.10
2022-11-22T03:19:24.231Z,6.23
2022-11-22T03:21:52.172Z,4.90
2022-11-22T03:24:20.568Z,4.13
2022-11-22T03:26:49.449Z,5.30
2022-11-22T03:29:17.623Z,4.43
2022-11-22T03:31:46.580Z,11.00
2022-11-22T03:34:14.542Z,8.57
2022-11-22T03:36:43.957Z,6.80
2022-11-22T03:39:11.883Z,6.00
2022-11-22T03:41:39.756Z,5.93
2022-11-22T03:44:07.985Z,7.60
2022-11-22T03:46:35.877Z,5.50
2022-11-22T03:49:03.856Z,4.73
2022-11-22T03:51:31.765Z,5.83
2022-11-22T03:54:01.016Z,6.13
2022-11-22T03:56:28.927Z,11.00
2022-11-22T03:58:56.854Z,10.80
2022-11-22T04:01:24.809Z,11.37
2022-11-22T04:03:52.728Z,11.40
2022-11-22T04:06:20.622Z,9.50
2022-11-22T04:08:48.596Z,9.27
2022-11-22T04:11:17.948Z,8.43
2022-11-22T04:14:02.393Z,8.10
2022-11-22T04:16:30.340Z,7.37
2022-11-22T04:18:58.240Z,8.10
2022-11-22T04:21:34.079Z,7.43
2022-11-22T04:24:16.261Z,7.83
2022-11-22T04:26:45.502Z,8.00
2022-11-22T04:29:13.529Z,6.73
2022-11-22T04:31:58.744Z,6.53
2022-11-22T04:34:26.674Z,6.87
2022-11-22T04:36:54.680Z,6.47
2022-11-22T04:39:22.577Z,7.53
2022-11-22T04:42:13.835Z,6.70
2022-11-22T04:44:41.020Z,8.00
2022-11-22T04:47:08.978Z,7.30
2022-11-22T04:49:36.929Z,7.73
2022-11-22T04:52:38.273Z,8.07
2022-11-22T04:55:06.925Z,7.27
2022-11-22T04:57:36.200Z,7.30
2022-11-22T05:00:04.993Z,7.30
2022-11-22T05:02:32.896Z,6.53
2022-11-22T05:05:00.998Z,7.10
2022-11-22T05:07:28.948Z,7.60
2022-11-22T05:09:56.858Z,7.60
2022-11-22T05:12:24.753Z,7.90
2022-11-22T05:14:54.019Z,8.80
2022-11-22T05:17:21.892Z,8.53
2022-11-22T05:19:49.799Z,7.93
2022-11-22T05:22:37.863Z,8.10
2022-11-22T05:25:05.529Z,7.90
2022-11-22T05:27:33.412Z,9.93
2022-11-22T05:30:02.819Z,9.83
2022-11-22T05:32:31.609Z,8.90
2022-11-22T05:34:59.626Z,9.87
2022-11-22T05:37:27.768Z,7.87
2022-11-22T05:39:55.665Z,8.50
2022-11-22T05:42:23.640Z,9.80
2022-11-22T05:44:51.536Z,8.60
2022-11-22T05:47:20.816Z,8.23
2022-11-22T05:49:48.715Z,10.03
2022-11-22T05:52:16.776Z,8.27
2022-11-22T05:54:44.676Z,9.73
2022-11-22T05:57:12.647Z,13.30
2022-11-22T05:59:44.086Z,13.50
2022-11-22T06:02:12.531Z,11.87
2022-11-22T06:04:41.850Z,12.77
2022-11-22T06:07:10.337Z,15.63
2022-11-22T06:09:38.742Z,13.90
2022-11-22T06:12:07.269Z,14.47
2022-11-22T06:14:39.961Z,12.13
2022-11-22T06:17:10.835Z,11.07
2022-11-22T06:19:38.761Z,12.03
2022-11-22T06:22:09.880Z,12.83
2022-11-22T06:24:37.802Z,13.43
2022-11-22T06:27:05.659Z,12.50
2022-11-22T06:29:33.740Z,12.07
2022-11-22T06:32:03.851Z,9.93
2022-11-22T06:34:32.181Z,9.67
2022-11-22T06:37:00.111Z,9.43
2022-11-22T06:39:29.894Z,9.27
2022-11-22T06:41:57.929Z,9.77
2022-11-22T06:44:25.851Z,11.03
2022-11-22T06:46:53.748Z,10.90
2022-11-22T06:49:21.653Z,11.87
2022-11-22T06:51:49.595Z,12.07
2022-11-22T06:54:17.491Z,12.50
2022-11-22T06:56:46.723Z,12.07
2022-11-22T06:59:14.607Z,11.33
2022-11-22T07:01:42.573Z,13.23
2022-11-22T07:04:11.346Z,13.60
2022-11-22T07:06:40.133Z,12.10
2022-11-22T07:09:09.305Z,13.37
2022-11-22T07:11:37.221Z,10.80
2022-11-22T07:14:08.723Z,12.30
2022-11-22T07:16:38.146Z,10.53
2022-11-22T07:19:06.685Z,10.47
2022-11-22T07:21:34.854Z,10.47
2022-11-22T07:24:02.758Z,10.60
2022-11-22T07:26:31.039Z,10.30
2022-11-22T07:28:58.982Z,11.50
2022-11-22T07:31:28.276Z,11.67
2022-11-22T07:33:58.046Z,8.57
2022-11-22T07:36:28.728Z,8.17
2022-11-22T07:38:56.988Z,8.17
2022-11-22T07:41:25.068Z,12.00
2022-11-22T07:43:53.147Z,13.77
2022-11-22T07:46:26.298Z,12.10
2022-11-22T07:48:55.773Z,13.83
2022-11-22T07:51:23.671Z,13.77
2022-11-22T07:53:51.609Z,13.50
2022-11-22T07:56:19.760Z,12.67
2022-11-22T07:58:47.676Z,11.30
2022-11-22T08:01:17.682Z,11.93
2022-11-22T08:03:45.818Z,12.27
2022-11-22T08:06:15.942Z,11.50
2022-11-22T08:08:43.852Z,10.80
2022-11-22T08:11:11.971Z,11.17
2022-11-22T08:13:40.353Z,11.20
2022-11-22T08:16:10.533Z,10.57
2022-11-22T08:18:40.479Z,10.53
2022-11-22T08:21:10.343Z,10.40
2022-11-22T08:23:43.812Z,9.10
2022-11-22T08:26:14.085Z,8.13
2022-11-22T08:28:42.728Z,8.00
2022-11-22T08:31:12.322Z,8.13
2022-11-22T08:33:40.665Z,7.33
2022-11-22T08:36:09.065Z,5.77
2022-11-22T08:38:37.325Z,6.00
2022-11-22T08:41:07.611Z,5.50
2022-11-22T08:43:35.550Z,6.67
2022-11-22T08:46:03.644Z,6.40
2022-11-22T08:48:33.652Z,6.80
2022-11-22T08:51:02.702Z,7.50
2022-11-22T08:53:31.370Z,7.00
2022-11-22T08:56:01.921Z,6.47
2022-11-22T08:58:32.182Z,6.63
2022-11-22T09:01:05.595Z,6.60
2022-11-22T09:03:33.459Z,8.70
2022-11-22T09:09:02.883Z,12.10
2022-11-22T09:11:36.969Z,12.30
2022-11-22T09:14:06.261Z,12.00
2022-11-22T09:16:34.138Z,12.80
2022-11-22T09:19:02.008Z,12.23
2022-11-22T09:21:29.983Z,10.77
2022-11-22T09:23:57.888Z,11.23
2022-11-22T09:26:25.983Z,11.23
2022-11-22T09:28:54.276Z,10.03
2022-11-22T09:31:24.367Z,11.30
2022-11-22T09:33:52.412Z,9.97
2022-11-22T09:36:21.781Z,7.83
2022-11-22T09:38:50.032Z,7.67
2022-11-22T09:41:30.853Z,11.43
2022-11-22T09:44:03.019Z,14.47
2022-11-22T09:46:42.241Z,14.33
2022-11-22T09:49:21.986Z,10.90
2022-11-22T09:51:53.139Z,12.67
2022-11-22T09:54:25.296Z,10.23
2022-11-22T09:56:55.690Z,8.80
2022-11-22T09:59:27.746Z,7.70
2022-11-22T10:02:16.990Z,6.03
2022-11-22T10:04:49.804Z,7.87
2022-11-22T10:07:21.517Z,9.83
2022-11-22T10:09:52.790Z,9.67
2022-11-22T10:12:23.790Z,7.70
2022-11-22T10:14:55.341Z,7.37
2022-11-22T10:17:31.238Z,8.47
2022-11-22T10:20:04.904Z,7.83
2022-11-22T10:22:34.177Z,7.83
2022-11-22T10:25:04.360Z,7.50
2022-11-22T10:27:33.638Z,6.90
2022-11-22T10:30:05.029Z,6.00
2022-11-22T10:32:39.593Z,4.60
2022-11-22T10:35:22.264Z,4.90
2022-11-22T10:37:56.091Z,5.43
2022-11-22T10:40:28.666Z,5.33
2022-11-22T10:43:12.513Z,4.97
2022-11-22T10:45:43.762Z,4.97
2022-11-22T10:48:22.196Z,4.60
2022-11-22T10:50:56.995Z,4.53
2022-11-22T10:53:34.856Z,4.70
2022-11-22T10:56:09.203Z,4.93
2022-11-22T10:58:43.235Z,5.73
2022-11-22T11:01:19.044Z,6.10
2022-11-22T11:03:49.902Z,5.83
2022-11-22T11:06:33.022Z,5.87
2022-11-22T11:11:56.249Z,7.53
2022-11-22T11:14:30.054Z,7.13
2022-11-22T11:16:59.729Z,8.40
2022-11-22T11:19:31.507Z,7.90
2022-11-22T11:22:01.845Z,8.00
2022-11-22T11:24:31.443Z,7.77
2022-11-22T11:27:00.886Z,8.77
2022-11-22T11:29:40.857Z,8.40
2022-11-22T11:32:11.301Z,7.67
2022-11-22T11:34:42.909Z,8.03
2022-11-22T11:37:20.312Z,8.80
2022-11-22T11:39:48.755Z,7.40
2022-11-22T11:42:24.999Z,6.00
2022-11-22T11:44:56.078Z,6.20
2022-11-22T11:47:34.080Z,6.33
2022-11-22T11:50:03.376Z,8.60
2022-11-22T11:52:31.708Z,7.50
2022-11-22T11:55:02.029Z,7.17
2022-11-22T11:57:32.421Z,6.80
2022-11-22T12:00:01.477Z,6.97
2022-11-22T12:02:36.314Z,7.50
2022-11-22T12:05:08.387Z,8.00
2022-11-22T12:07:41.436Z,10.00
2022-11-22T12:10:32.854Z,10.07
2022-11-22T12:13:05.071Z,10.60
2022-11-22T12:15:42.058Z,9.20
2022-11-22T12:18:21.155Z,9.00
2022-11-22T12:20:54.051Z,9.53
2022-11-22T12:23:26.217Z,9.57
2022-11-22T12:25:56.490Z,9.60
2022-11-22T12:28:25.620Z,9.80
2022-11-22T12:30:56.948Z,9.53
2022-11-22T12:33:28.467Z,10.50
2022-11-22T12:35:58.193Z,10.33
2022-11-22T12:38:30.089Z,10.10
2022-11-22T12:41:00.600Z,10.10
2022-11-22T12:43:31.235Z,9.20
2022-11-22T12:46:02.035Z,10.37
2022-11-22T12:48:34.338Z,9.30
2022-11-22T12:51:08.050Z,9.50
2022-11-22T12:53:37.251Z,9.60
2022-11-22T12:56:10.548Z,9.20
2022-11-22T12:58:41.796Z,9.47
2022-11-22T13:01:15.180Z,10.40
2022-11-22T13:03:46.836Z,9.73
2022-11-22T13:06:18.209Z,13.83
2022-11-22T13:08:57.686Z,25.70
2022-11-22T13:11:32.527Z,13.50
2022-11-22T13:14:06.648Z,11.73
2022-11-22T13:16:35.409Z,10.63
2022-11-22T13:19:05.648Z,11.90
2022-11-22T13:21:44.760Z,10.83
2022-11-22T13:24:28.455Z,13.27
2022-11-22T13:27:05.889Z,10.83
2022-11-22T13:29:35.877Z,9.97
2022-11-22T13:32:06.906Z,12.30
2022-11-22T13:34:36.552Z,12.03
2022-11-22T13:37:11.240Z,10.80
2022-11-22T13:39:44.481Z,13.60
2022-11-22T13:42:15.098Z,13.60
2022-11-22T13:45:23.124Z,13.63
2022-11-22T13:47:51.450Z,12.27
2022-11-22T13:50:52.745Z,14.67
2022-11-22T13:53:34.258Z,12.83
2022-11-22T13:56:47.944Z,12.40
2022-11-22T13:59:18.335Z,14.53
2022-11-22T14:02:05.255Z,15.00
2022-11-22T14:04:40.020Z,13.00
2022-11-22T14:07:23.479Z,13.13
2022-11-22T14:09:59.991Z,14.03
2022-11-22T14:13:01.230Z,13.40
2022-11-22T14:15:49.426Z,13.67
2022-11-22T14:18:36.020Z,20.40
2022-11-22T14:21:05.863Z,20.00
2022-11-22T14:23:41.336Z,26.07
2022-11-22T14:26:20.032Z,16.97
2022-11-22T14:29:18.350Z,14.00
2022-11-22T14:31:54.389Z,13.97
2022-11-22T14:34:24.127Z,14.90
2022-11-22T14:37:29.415Z,14.40
2022-11-22T14:40:41.879Z,15.23
2022-11-22T14:43:33.865Z,15.13
2022-11-22T14:46:24.364Z,21.63
2022-11-22T14:49:01.612Z,23.60
2022-11-22T14:51:32.636Z,14.33
2022-11-22T14:54:02.754Z,15.73
2022-11-22T14:56:32.132Z,34.70
2022-11-22T14:59:11.261Z,15.70
2022-11-22T15:01:52.425Z,15.70
2022-11-22T15:09:10.681Z,15.77
2022-11-22T15:09:19.192Z,15.90
2022-11-22T15:11:09.308Z,15.80
2022-11-22T15:14:14.128Z,14.73
2022-11-22T15:57:26.610Z,11.97
2022-11-22T15:59:55.501Z,11.53
2022-11-22T16:02:26.900Z,11.67
2022-11-22T16:06:09.702Z,11.10
2022-11-22T16:07:49.708Z,11.20
2022-11-22T16:10:23.895Z,12.13
2022-11-22T16:12:52.834Z,12.07
2022-11-22T16:15:26.962Z,12.53
2022-11-22T16:18:08.775Z,10.50
2022-11-22T16:20:37.771Z,11.37
2022-11-22T16:23:19.842Z,11.30
2022-11-22T16:25:49.885Z,12.87
2022-11-22T16:28:26.412Z,13.67
2022-11-22T16:30:56.342Z,12.23
2022-11-22T16:33:24.923Z,11.17
2022-11-22T16:35:57.666Z,12.80
2022-11-22T16:38:27.620Z,11.90
2022-11-22T16:40:58.104Z,12.07
2022-11-22T16:43:27.318Z,11.70
2022-11-22T16:45:55.518Z,12.13
2022-11-22T16:48:33.468Z,15.50
2022-11-22T16:51:04.492Z,11.87
2022-11-22T16:53:40.099Z,10.40
2022-11-22T16:56:08.496Z,9.63
2022-11-22T16:58:36.401Z,11.53
2022-11-22T17:01:04.582Z,10.73
2022-11-22T17:03:34.384Z,11.33
2022-11-22T17:06:02.284Z,16.13
2022-11-22T17:08:30.296Z,12.77
2022-11-22T17:10:59.867Z,14.53
2022-11-22T17:13:28.850Z,16.93
2022-11-22T17:15:57.568Z,12.47
2022-11-22T17:18:27.207Z,12.67
2022-11-22T17:20:55.200Z,11.60
2022-11-22T17:23:27.980Z,10.80
2022-11-22T17:25:55.892Z,12.50
2022-11-22T17:28:25.170Z,12.80
2022-11-22T17:30:53.080Z,11.70
2022-11-22T17:33:20.993Z,16.10
2022-11-22T17:35:48.925Z,43.67
2022-11-22T17:38:16.875Z,19.00
2022-11-22T17:40:45.416Z,68.57
2022-11-22T17:43:13.923Z,25.07
2022-11-22T17:45:43.845Z,15.00
2022-11-22T17:48:12.223Z,10.17
2022-11-22T17:50:40.393Z,16.67
2022-11-22T17:53:08.317Z,19.90
2022-11-22T17:56:08.448Z,14.50
2022-11-22T17:58:24.237Z,12.80
2022-11-22T18:00:53.651Z,12.90
2022-11-22T18:03:21.571Z,15.27
2022-11-22T18:05:49.507Z,14.53
2022-11-22T18:08:17.388Z,18.87
2022-11-22T18:10:45.487Z,15.00
2022-11-22T18:13:21.305Z,17.37
2022-11-22T18:15:55.352Z,17.57
2022-11-22T18:18:54.597Z,18.00
2022-11-22T18:21:17.129Z,18.77
2022-11-22T18:23:46.285Z,17.60
2022-11-22T18:26:38.154Z,19.53
2022-11-22T18:29:35.633Z,34.80
2022-11-22T18:34:39.990Z,18.63
2022-11-22T18:37:07.953Z,20.60
2022-11-22T18:39:38.536Z,23.20
2022-11-22T18:42:08.356Z,24.73
2022-11-22T18:44:36.250Z,20.10
2022-11-22T18:47:05.623Z,17.70
2022-11-22T18:49:33.875Z,38.63
2022-11-22T18:52:02.052Z,25.07
2022-11-22T18:54:30.485Z,16.90
2022-11-22T18:56:58.691Z,17.70
2022-11-22T18:59:26.929Z,15.33
2022-11-22T19:01:55.463Z,16.17
2022-11-22T19:04:24.761Z,16.73
2022-11-22T19:06:52.830Z,16.00
2022-11-22T19:09:20.771Z,15.70
2022-11-22T19:11:48.701Z,13.70
2022-11-22T19:14:16.832Z,15.73
2022-11-22T19:16:44.747Z,15.33
2022-11-22T19:19:13.134Z,23.17
2022-11-22T19:21:42.398Z,20.27
2022-11-22T19:24:10.447Z,18.23
2022-11-22T19:26:38.539Z,18.67
2022-11-22T19:29:06.404Z,18.27
2022-11-22T19:31:34.296Z,18.00
2022-11-22T19:34:02.216Z,24.60
2022-11-22T19:36:33.866Z,18.70
2022-11-22T19:39:04.549Z,19.00
2022-11-22T19:41:32.744Z,20.27
2022-11-22T19:44:00.700Z,20.67
2022-11-22T19:46:28.792Z,25.27
2022-11-22T19:48:57.995Z,21.80
2022-11-22T19:51:27.051Z,23.77
2022-11-22T19:53:55.529Z,26.70
2022-11-22T19:56:26.749Z,27.60
2022-11-22T19:58:55.509Z,37.07
2022-11-22T20:01:24.874Z,47.70
2022-11-22T20:03:53.811Z,28.73
2022-11-22T20:06:22.330Z,24.33
2022-11-22T20:08:50.380Z,24.90
2022-11-22T20:11:20.388Z,24.83
2022-11-22T20:13:52.135Z,23.97
2022-11-22T20:16:22.094Z,24.13
2022-11-22T20:18:53.440Z,25.23
2022-11-22T20:21:22.513Z,24.33
2022-11-22T20:23:51.118Z,24.00
2022-11-22T20:26:20.093Z,23.73
2022-11-22T20:28:54.598Z,22.57
2022-11-22T20:31:22.792Z,26.30
2022-11-22T20:33:53.050Z,29.90
2022-11-22T20:36:22.809Z,24.70
2022-11-22T20:38:52.127Z,26.33
2022-11-22T20:41:21.700Z,22.77
2022-11-22T20:43:51.017Z,21.40
2022-11-22T20:46:20.763Z,21.47
2022-11-22T20:49:02.146Z,21.50
2022-11-22T20:51:30.328Z,21.50
2022-11-22T20:53:58.767Z,20.20
2022-11-22T20:56:26.738Z,20.90
2022-11-22T20:58:56.036Z,18.20
2022-11-22T21:01:25.943Z,20.03
2022-11-22T21:03:54.463Z,19.43
2022-11-22T21:06:24.024Z,20.10
2022-11-22T21:08:52.180Z,20.90
2022-11-22T21:11:21.513Z,22.50
2022-11-22T21:13:49.759Z,19.90
2022-11-22T21:16:23.705Z,16.97
2022-11-22T21:18:53.555Z,19.33
2022-11-22T21:21:23.842Z,18.83
2022-11-22T21:23:53.155Z,18.50
2022-11-22T21:26:21.460Z,19.93
2022-11-22T21:28:49.881Z,19.77
2022-11-22T21:31:19.626Z,19.90
2022-11-22T21:33:47.838Z,19.50
2022-11-22T21:36:15.767Z,19.63
2022-11-22T21:38:43.696Z,18.57
2022-11-22T21:44:02.815Z,15.83
2022-11-22T21:46:32.085Z,15.30
2022-11-22T21:48:59.981Z,14.93
2022-11-22T21:51:27.908Z,14.90
2022-11-22T21:53:58.258Z,13.80
2022-11-22T21:56:26.384Z,13.87
2022-11-22T21:59:04.463Z,14.03
2022-11-22T22:01:34.100Z,14.63
2022-11-22T22:04:02.035Z,12.83
2022-11-22T22:06:30.178Z,14.90
2022-11-22T22:08:58.110Z,14.27
2022-11-22T22:11:26.038Z,13.47
2022-11-22T22:13:54.750Z,15.13
2022-11-22T22:16:25.786Z,13.47
2022-11-22T22:18:55.218Z,12.93
2022-11-22T22:21:23.257Z,11.63
2022-11-22T22:23:51.177Z,12.33
2022-11-22T22:26:19.186Z,11.23
2022-11-22T22:28:47.286Z,12.97
2022-11-22T22:31:21.342Z,12.70
2022-11-22T22:33:50.030Z,12.20
2022-11-22T22:36:19.392Z,12.93
2022-11-22T22:38:47.660Z,13.17
2022-11-22T22:41:15.751Z,13.43
2022-11-22T22:43:46.663Z,12.40
2022-11-22T22:46:15.717Z,13.17
2022-11-22T22:48:44.124Z,12.00
2022-11-22T22:51:13.830Z,12.30
2022-11-22T22:53:44.003Z,12.10
2022-11-22T22:56:13.016Z,11.77
2022-11-22T22:58:41.134Z,11.00
2022-11-22T23:01:09.789Z,10.17
2022-11-22T23:03:38.026Z,11.40
2022-11-22T23:06:07.531Z,10.70
2022-11-22T23:08:35.884Z,11.30
2022-11-22T23:11:06.425Z,11.40
2022-11-22T23:13:36.152Z,11.30
2022-11-22T23:16:04.179Z,11.27
2022-11-22T23:18:32.221Z,10.10
2022-11-22T23:21:00.743Z,11.93
2022-11-22T23:23:29.772Z,12.17
2022-11-22T23:25:57.772Z,13.00
2022-11-22T23:28:27.073Z,11.70
2022-11-22T23:30:54.935Z,12.90
2022-11-22T23:33:22.815Z,11.50
2022-11-22T23:35:50.748Z,12.50
2022-11-22T23:38:18.661Z,12.83
2022-11-22T23:40:53.801Z,11.90
2022-11-22T23:43:21.677Z,12.63
2022-11-22T23:45:50.967Z,14.10
2022-11-22T23:48:18.920Z,12.07
2022-11-22T23:50:46.840Z,12.87
2022-11-22T23:53:14.740Z,12.27
2022-11-22T23:55:42.891Z,12.30
2022-11-22T23:58:11.118Z,12.37
